sensor_id;sensor_type;location;lat;lon;timestamp;temperature;humidity
7399;DHT22;3740;50.700;7.184;2023-06-26T00:00:14;22.50;99.90
7399;DHT22;3740;50.700;7.184;2023-06-26T00:02:40;22.40;99.90
7399;DHT22;3740;50.700;7.184;2023-06-26T00:05:05;22.40;99.90
7399;DHT22;3740;50.700;7.184;2023-06-26T00:07:31;22.40;99.90
7399;DHT22;3740;50.700;7.184;2023-06-26T00:10:00;22.40;99.90
7399;DHT22;3740;50.700;7.184;2023-06-26T00:12:26;22.30;99.90
7399;DHT22;3740;50.700;7.184;2023-06-26T00:14:51;22.30;99.90
7399;DHT22;3740;50.700;7.184;2023-06-26T00:17:18;22.30;99.90
7399;DHT22;3740;50.700;7.184;2023-06-26T00:19:43;22.20;99.90
7399;DHT22;3740;50.700;7.184;2023-06-26T00:22:09;22.20;99.90
7399;DHT22;3740;50.700;7.184;2023-06-26T00:24:34;22.10;99.90
7399;DHT22;3740;50.700;7.184;2023-06-26T00:27:00;22.10;99.90
7399;DHT22;3740;50.700;7.184;2023-06-26T00:29:26;22.10;99.90
7399;DHT22;3740;50.700;7.184;2023-06-26T00:31:51;22.10;99.90
7399;DHT22;3740;50.700;7.184;2023-06-26T00:34:17;22.10;99.90
7399;DHT22;3740;50.700;7.184;2023-06-26T00:36:43;22.00;99.90
7399;DHT22;3740;50.700;7.184;2023-06-26T00:39:09;22.00;99.90
7399;DHT22;3740;50.700;7.184;2023-06-26T00:41:36;22.00;99.90
7399;DHT22;3740;50.700;7.184;2023-06-26T00:44:02;22.00;99.90
7399;DHT22;3740;50.700;7.184;2023-06-26T00:46:27;21.90;99.90
7399;DHT22;3740;50.700;7.184;2023-06-26T00:48:54;21.90;99.90
7399;DHT22;3740;50.700;7.184;2023-06-26T00:51:20;21.90;99.90
7399;DHT22;3740;50.700;7.184;2023-06-26T00:53:47;21.90;99.90
7399;DHT22;3740;50.700;7.184;2023-06-26T00:56:13;21.90;99.90
7399;DHT22;3740;50.700;7.184;2023-06-26T00:58:40;21.80;99.90
7399;DHT22;3740;50.700;7.184;2023-06-26T01:01:05;21.80;99.90
7399;DHT22;3740;50.700;7.184;2023-06-26T01:03:34;21.80;99.90
7399;DHT22;3740;50.700;7.184;2023-06-26T01:06:00;21.70;99.90
7399;DHT22;3740;50.700;7.184;2023-06-26T01:08:27;21.70;99.90
7399;DHT22;3740;50.700;7.184;2023-06-26T01:10:53;21.70;99.90
7399;DHT22;3740;50.700;7.184;2023-06-26T01:13:18;21.60;99.90
7399;DHT22;3740;50.700;7.184;2023-06-26T01:15:45;21.60;99.90
7399;DHT22;3740;50.700;7.184;2023-06-26T01:18:12;21.60;99.90
7399;DHT22;3740;50.700;7.184;2023-06-26T01:20:39;21.60;99.90
7399;DHT22;3740;50.700;7.184;2023-06-26T01:28:40;21.50;99.90
7399;DHT22;3740;50.700;7.184;2023-06-26T01:31:07;21.40;99.90
7399;DHT22;3740;50.700;7.184;2023-06-26T01:33:33;21.40;99.90
7399;DHT22;3740;50.700;7.184;2023-06-26T01:35:59;21.40;99.90
7399;DHT22;3740;50.700;7.184;2023-06-26T01:38:25;21.30;99.90
7399;DHT22;3740;50.700;7.184;2023-06-26T01:40:51;21.30;99.90
7399;DHT22;3740;50.700;7.184;2023-06-26T01:46:25;21.30;99.90
7399;DHT22;3740;50.700;7.184;2023-06-26T01:49:06;21.20;99.90
7399;DHT22;3740;50.700;7.184;2023-06-26T01:51:41;21.20;99.90
7399;DHT22;3740;50.700;7.184;2023-06-26T01:54:18;21.20;99.90
7399;DHT22;3740;50.700;7.184;2023-06-26T01:56:49;21.20;99.90
7399;DHT22;3740;50.700;7.184;2023-06-26T01:59:16;21.10;99.90
7399;DHT22;3740;50.700;7.184;2023-06-26T02:01:43;21.10;99.90
7399;DHT22;3740;50.700;7.184;2023-06-26T02:04:08;21.10;99.90
7399;DHT22;3740;50.700;7.184;2023-06-26T02:06:34;21.10;99.90
7399;DHT22;3740;50.700;7.184;2023-06-26T02:08:59;21.10;99.90
7399;DHT22;3740;50.700;7.184;2023-06-26T02:11:25;21.00;99.90
7399;DHT22;3740;50.700;7.184;2023-06-26T02:13:51;21.00;99.90
7399;DHT22;3740;50.700;7.184;2023-06-26T02:16:16;21.00;99.90
7399;DHT22;3740;50.700;7.184;2023-06-26T02:18:42;21.00;99.90
7399;DHT22;3740;50.700;7.184;2023-06-26T02:21:09;21.00;99.90
7399;DHT22;3740;50.700;7.184;2023-06-26T02:23:35;20.90;99.90
7399;DHT22;3740;50.700;7.184;2023-06-26T02:26:00;20.90;99.90
7399;DHT22;3740;50.700;7.184;2023-06-26T02:28:26;20.90;99.90
7399;DHT22;3740;50.700;7.184;2023-06-26T02:30:52;20.90;99.90
7399;DHT22;3740;50.700;7.184;2023-06-26T02:33:17;20.80;99.90
7399;DHT22;3740;50.700;7.184;2023-06-26T02:35:43;20.80;99.90
7399;DHT22;3740;50.700;7.184;2023-06-26T02:38:08;20.80;99.90
7399;DHT22;3740;50.700;7.184;2023-06-26T02:40:34;20.80;99.90
7399;DHT22;3740;50.700;7.184;2023-06-26T02:42:59;20.80;99.90
7399;DHT22;3740;50.700;7.184;2023-06-26T02:45:25;20.80;99.90
7399;DHT22;3740;50.700;7.184;2023-06-26T02:47:50;20.80;99.90
7399;DHT22;3740;50.700;7.184;2023-06-26T02:50:16;20.80;99.90
7399;DHT22;3740;50.700;7.184;2023-06-26T02:52:41;20.80;99.90
7399;DHT22;3740;50.700;7.184;2023-06-26T02:55:07;20.80;99.90
7399;DHT22;3740;50.700;7.184;2023-06-26T02:57:32;20.80;99.90
7399;DHT22;3740;50.700;7.184;2023-06-26T02:59:58;20.90;99.90
7399;DHT22;3740;50.700;7.184;2023-06-26T03:02:23;20.90;99.90
7399;DHT22;3740;50.700;7.184;2023-06-26T03:04:49;20.90;99.90
7399;DHT22;3740;50.700;7.184;2023-06-26T03:07:15;20.90;99.90
7399;DHT22;3740;50.700;7.184;2023-06-26T03:09:41;20.80;99.90
7399;DHT22;3740;50.700;7.184;2023-06-26T03:12:07;20.80;99.90
7399;DHT22;3740;50.700;7.184;2023-06-26T03:14:33;20.80;99.90
7399;DHT22;3740;50.700;7.184;2023-06-26T03:16:58;20.80;99.90
7399;DHT22;3740;50.700;7.184;2023-06-26T03:19:28;20.80;99.90
7399;DHT22;3740;50.700;7.184;2023-06-26T03:21:54;20.80;99.90
7399;DHT22;3740;50.700;7.184;2023-06-26T03:24:20;20.80;99.90
7399;DHT22;3740;50.700;7.184;2023-06-26T03:26:46;20.80;99.90
7399;DHT22;3740;50.700;7.184;2023-06-26T03:29:11;20.80;99.90
7399;DHT22;3740;50.700;7.184;2023-06-26T03:31:37;20.70;99.90
7399;DHT22;3740;50.700;7.184;2023-06-26T03:34:02;20.70;99.90
7399;DHT22;3740;50.700;7.184;2023-06-26T03:36:28;20.70;99.90
7399;DHT22;3740;50.700;7.184;2023-06-26T03:38:53;20.70;99.90
7399;DHT22;3740;50.700;7.184;2023-06-26T03:41:22;20.60;99.90
7399;DHT22;3740;50.700;7.184;2023-06-26T03:43:48;20.60;99.90
7399;DHT22;3740;50.700;7.184;2023-06-26T03:46:14;20.60;99.90
7399;DHT22;3740;50.700;7.184;2023-06-26T03:48:39;20.60;99.90
7399;DHT22;3740;50.700;7.184;2023-06-26T03:51:05;20.60;99.90
7399;DHT22;3740;50.700;7.184;2023-06-26T03:53:32;20.60;99.90
7399;DHT22;3740;50.700;7.184;2023-06-26T03:55:58;20.70;99.90
7399;DHT22;3740;50.700;7.184;2023-06-26T03:58:23;20.70;99.90
7399;DHT22;3740;50.700;7.184;2023-06-26T04:00:50;20.70;99.90
7399;DHT22;3740;50.700;7.184;2023-06-26T04:03:16;20.70;99.90
7399;DHT22;3740;50.700;7.184;2023-06-26T04:05:41;20.70;99.90
7399;DHT22;3740;50.700;7.184;2023-06-26T04:08:07;20.70;99.90
7399;DHT22;3740;50.700;7.184;2023-06-26T04:10:33;20.80;99.90
7399;DHT22;3740;50.700;7.184;2023-06-26T04:12:58;20.80;99.90
7399;DHT22;3740;50.700;7.184;2023-06-26T04:15:24;20.70;99.90
7399;DHT22;3740;50.700;7.184;2023-06-26T04:17:50;20.70;99.90
7399;DHT22;3740;50.700;7.184;2023-06-26T04:20:15;20.70;99.90
7399;DHT22;3740;50.700;7.184;2023-06-26T04:22:41;20.80;99.90
7399;DHT22;3740;50.700;7.184;2023-06-26T04:25:06;20.80;99.90
7399;DHT22;3740;50.700;7.184;2023-06-26T04:27:32;20.80;99.90
7399;DHT22;3740;50.700;7.184;2023-06-26T04:29:58;20.80;99.90
7399;DHT22;3740;50.700;7.184;2023-06-26T04:32:23;20.90;99.90
7399;DHT22;3740;50.700;7.184;2023-06-26T04:34:49;20.90;99.90
7399;DHT22;3740;50.700;7.184;2023-06-26T04:37:14;20.90;99.90
7399;DHT22;3740;50.700;7.184;2023-06-26T04:39:43;20.90;99.90
7399;DHT22;3740;50.700;7.184;2023-06-26T04:42:08;21.00;99.90
7399;DHT22;3740;50.700;7.184;2023-06-26T04:44:35;21.00;99.90
7399;DHT22;3740;50.700;7.184;2023-06-26T04:47:03;21.00;99.90
7399;DHT22;3740;50.700;7.184;2023-06-26T04:49:28;21.00;99.90
7399;DHT22;3740;50.700;7.184;2023-06-26T04:51:55;21.10;99.90
7399;DHT22;3740;50.700;7.184;2023-06-26T04:54:21;21.10;99.90
7399;DHT22;3740;50.700;7.184;2023-06-26T04:56:47;21.10;99.90
7399;DHT22;3740;50.700;7.184;2023-06-26T04:59:13;21.10;99.90
7399;DHT22;3740;50.700;7.184;2023-06-26T05:01:39;21.10;99.90
7399;DHT22;3740;50.700;7.184;2023-06-26T05:04:06;21.10;99.90
7399;DHT22;3740;50.700;7.184;2023-06-26T05:06:31;21.10;99.90
7399;DHT22;3740;50.700;7.184;2023-06-26T05:08:58;21.10;99.90
7399;DHT22;3740;50.700;7.184;2023-06-26T05:11:24;21.20;99.90
7399;DHT22;3740;50.700;7.184;2023-06-26T05:13:50;21.20;99.90
7399;DHT22;3740;50.700;7.184;2023-06-26T05:16:16;21.30;99.90
7399;DHT22;3740;50.700;7.184;2023-06-26T05:18:41;21.30;99.90
7399;DHT22;3740;50.700;7.184;2023-06-26T05:21:07;21.30;99.90
7399;DHT22;3740;50.700;7.184;2023-06-26T05:23:33;21.30;99.90
7399;DHT22;3740;50.700;7.184;2023-06-26T05:26:02;21.30;99.90
7399;DHT22;3740;50.700;7.184;2023-06-26T05:28:29;21.30;99.90
7399;DHT22;3740;50.700;7.184;2023-06-26T05:30:58;21.40;99.90
7399;DHT22;3740;50.700;7.184;2023-06-26T05:33:25;21.40;99.90
7399;DHT22;3740;50.700;7.184;2023-06-26T05:35:54;21.40;99.90
7399;DHT22;3740;50.700;7.184;2023-06-26T05:38:20;21.40;99.90
7399;DHT22;3740;50.700;7.184;2023-06-26T05:40:46;21.40;99.90
7399;DHT22;3740;50.700;7.184;2023-06-26T05:43:12;21.40;99.90
7399;DHT22;3740;50.700;7.184;2023-06-26T05:45:38;21.50;99.90
7399;DHT22;3740;50.700;7.184;2023-06-26T05:48:04;21.60;99.90
7399;DHT22;3740;50.700;7.184;2023-06-26T05:50:29;21.60;99.90
7399;DHT22;3740;50.700;7.184;2023-06-26T05:52:55;21.70;99.90
7399;DHT22;3740;50.700;7.184;2023-06-26T05:55:22;21.70;99.90
7399;DHT22;3740;50.700;7.184;2023-06-26T05:57:48;21.80;99.90
7399;DHT22;3740;50.700;7.184;2023-06-26T06:00:15;21.80;99.90
7399;DHT22;3740;50.700;7.184;2023-06-26T06:02:42;21.80;99.90
7399;DHT22;3740;50.700;7.184;2023-06-26T06:05:08;21.80;99.90
7399;DHT22;3740;50.700;7.184;2023-06-26T06:07:35;21.80;99.90
7399;DHT22;3740;50.700;7.184;2023-06-26T06:10:02;21.90;99.90
7399;DHT22;3740;50.700;7.184;2023-06-26T06:12:28;21.90;99.90
7399;DHT22;3740;50.700;7.184;2023-06-26T06:14:55;21.90;99.90
7399;DHT22;3740;50.700;7.184;2023-06-26T06:17:21;21.90;99.90
7399;DHT22;3740;50.700;7.184;2023-06-26T06:19:47;21.90;99.90
7399;DHT22;3740;50.700;7.184;2023-06-26T06:22:12;21.90;99.90
7399;DHT22;3740;50.700;7.184;2023-06-26T06:24:38;21.80;99.90
7399;DHT22;3740;50.700;7.184;2023-06-26T06:27:04;21.90;99.90
7399;DHT22;3740;50.700;7.184;2023-06-26T06:29:30;21.90;99.90
7399;DHT22;3740;50.700;7.184;2023-06-26T06:31:56;22.00;99.90
7399;DHT22;3740;50.700;7.184;2023-06-26T06:34:21;22.00;99.90
7399;DHT22;3740;50.700;7.184;2023-06-26T06:36:47;22.10;99.90
7399;DHT22;3740;50.700;7.184;2023-06-26T06:39:12;22.20;99.90
7399;DHT22;3740;50.700;7.184;2023-06-26T06:41:38;22.30;99.90
7399;DHT22;3740;50.700;7.184;2023-06-26T06:44:04;22.30;99.90
7399;DHT22;3740;50.700;7.184;2023-06-26T06:46:29;22.10;99.90
7399;DHT22;3740;50.700;7.184;2023-06-26T06:48:55;21.90;99.90
7399;DHT22;3740;50.700;7.184;2023-06-26T06:51:21;21.80;99.90
7399;DHT22;3740;50.700;7.184;2023-06-26T06:53:47;21.80;99.90
7399;DHT22;3740;50.700;7.184;2023-06-26T06:56:12;21.90;99.90
7399;DHT22;3740;50.700;7.184;2023-06-26T06:58:38;22.00;99.90
7399;DHT22;3740;50.700;7.184;2023-06-26T07:01:08;22.10;99.90
7399;DHT22;3740;50.700;7.184;2023-06-26T07:03:34;22.10;99.90
7399;DHT22;3740;50.700;7.184;2023-06-26T07:06:00;22.10;99.90
7399;DHT22;3740;50.700;7.184;2023-06-26T07:08:25;22.00;99.90
7399;DHT22;3740;50.700;7.184;2023-06-26T07:10:51;22.10;99.90
7399;DHT22;3740;50.700;7.184;2023-06-26T07:13:16;22.20;99.90
7399;DHT22;3740;50.700;7.184;2023-06-26T07:15:42;22.20;99.90
7399;DHT22;3740;50.700;7.184;2023-06-26T07:18:08;22.20;99.90
7399;DHT22;3740;50.700;7.184;2023-06-26T07:20:33;22.10;99.90
7399;DHT22;3740;50.700;7.184;2023-06-26T07:22:59;22.10;99.90
7399;DHT22;3740;50.700;7.184;2023-06-26T07:25:24;22.10;99.90
7399;DHT22;3740;50.700;7.184;2023-06-26T07:27:50;22.10;99.90
7399;DHT22;3740;50.700;7.184;2023-06-26T07:30:15;22.10;99.90
7399;DHT22;3740;50.700;7.184;2023-06-26T07:32:41;22.00;99.90
7399;DHT22;3740;50.700;7.184;2023-06-26T07:35:07;21.90;99.90
7399;DHT22;3740;50.700;7.184;2023-06-26T07:37:33;21.90;99.90
7399;DHT22;3740;50.700;7.184;2023-06-26T07:39:59;22.00;99.90
7399;DHT22;3740;50.700;7.184;2023-06-26T07:42:24;22.10;99.90
7399;DHT22;3740;50.700;7.184;2023-06-26T07:44:50;22.00;99.90
7399;DHT22;3740;50.700;7.184;2023-06-26T07:47:15;21.90;99.90
7399;DHT22;3740;50.700;7.184;2023-06-26T07:49:41;21.80;99.90
7399;DHT22;3740;50.700;7.184;2023-06-26T07:52:07;21.80;99.90
7399;DHT22;3740;50.700;7.184;2023-06-26T07:54:32;21.80;99.90
7399;DHT22;3740;50.700;7.184;2023-06-26T07:56:59;21.90;99.90
7399;DHT22;3740;50.700;7.184;2023-06-26T07:59:27;21.80;99.90
7399;DHT22;3740;50.700;7.184;2023-06-26T08:01:54;21.90;99.90
7399;DHT22;3740;50.700;7.184;2023-06-26T08:04:22;22.00;99.90
7399;DHT22;3740;50.700;7.184;2023-06-26T08:06:52;22.20;99.90
7399;DHT22;3740;50.700;7.184;2023-06-26T08:09:19;22.20;99.90
7399;DHT22;3740;50.700;7.184;2023-06-26T08:11:45;22.40;99.90
7399;DHT22;3740;50.700;7.184;2023-06-26T08:14:11;22.40;99.90
7399;DHT22;3740;50.700;7.184;2023-06-26T08:16:40;22.40;99.90
7399;DHT22;3740;50.700;7.184;2023-06-26T08:19:07;22.30;99.90
7399;DHT22;3740;50.700;7.184;2023-06-26T08:21:32;22.30;99.90
7399;DHT22;3740;50.700;7.184;2023-06-26T08:23:58;22.30;99.90
7399;DHT22;3740;50.700;7.184;2023-06-26T08:26:23;22.40;99.90
7399;DHT22;3740;50.700;7.184;2023-06-26T08:28:49;22.40;99.90
7399;DHT22;3740;50.700;7.184;2023-06-26T08:31:15;22.50;99.90
7399;DHT22;3740;50.700;7.184;2023-06-26T08:33:41;22.60;99.90
7399;DHT22;3740;50.700;7.184;2023-06-26T08:36:06;22.70;99.90
7399;DHT22;3740;50.700;7.184;2023-06-26T08:38:32;22.70;99.90
7399;DHT22;3740;50.700;7.184;2023-06-26T08:40:58;22.60;99.90
7399;DHT22;3740;50.700;7.184;2023-06-26T08:43:24;22.60;99.90
7399;DHT22;3740;50.700;7.184;2023-06-26T08:45:49;22.60;99.90
7399;DHT22;3740;50.700;7.184;2023-06-26T08:48:20;22.60;99.90
7399;DHT22;3740;50.700;7.184;2023-06-26T08:50:48;22.60;99.90
7399;DHT22;3740;50.700;7.184;2023-06-26T08:53:29;22.70;99.90
7399;DHT22;3740;50.700;7.184;2023-06-26T08:55:57;22.70;99.90
7399;DHT22;3740;50.700;7.184;2023-06-26T08:58:23;22.80;99.90
7399;DHT22;3740;50.700;7.184;2023-06-26T09:00:49;22.80;99.90
7399;DHT22;3740;50.700;7.184;2023-06-26T09:03:15;22.90;99.90
7399;DHT22;3740;50.700;7.184;2023-06-26T09:05:40;22.90;99.90
7399;DHT22;3740;50.700;7.184;2023-06-26T09:08:07;22.70;99.90
7399;DHT22;3740;50.700;7.184;2023-06-26T09:10:33;22.80;99.90
7399;DHT22;3740;50.700;7.184;2023-06-26T09:12:59;22.90;99.90
7399;DHT22;3740;50.700;7.184;2023-06-26T09:15:26;23.00;99.90
7399;DHT22;3740;50.700;7.184;2023-06-26T09:17:56;23.00;99.90
7399;DHT22;3740;50.700;7.184;2023-06-26T09:20:23;23.00;99.90
7399;DHT22;3740;50.700;7.184;2023-06-26T09:22:48;23.00;99.90
7399;DHT22;3740;50.700;7.184;2023-06-26T09:25:14;23.00;99.90
7399;DHT22;3740;50.700;7.184;2023-06-26T09:27:40;23.20;99.90
7399;DHT22;3740;50.700;7.184;2023-06-26T09:30:08;23.10;99.90
7399;DHT22;3740;50.700;7.184;2023-06-26T09:32:34;23.10;99.90
7399;DHT22;3740;50.700;7.184;2023-06-26T09:35:02;23.20;99.90
7399;DHT22;3740;50.700;7.184;2023-06-26T09:37:28;23.20;99.90
7399;DHT22;3740;50.700;7.184;2023-06-26T09:39:54;23.10;99.90
7399;DHT22;3740;50.700;7.184;2023-06-26T09:42:20;23.10;99.90
7399;DHT22;3740;50.700;7.184;2023-06-26T09:44:49;23.10;99.90
7399;DHT22;3740;50.700;7.184;2023-06-26T09:47:18;23.20;99.90
7399;DHT22;3740;50.700;7.184;2023-06-26T09:49:44;23.20;99.90
7399;DHT22;3740;50.700;7.184;2023-06-26T09:52:09;23.30;99.90
7399;DHT22;3740;50.700;7.184;2023-06-26T09:54:35;23.40;99.90
7399;DHT22;3740;50.700;7.184;2023-06-26T09:57:12;23.30;99.90
7399;DHT22;3740;50.700;7.184;2023-06-26T09:59:42;23.40;99.90
7399;DHT22;3740;50.700;7.184;2023-06-26T10:02:08;23.40;99.90
7399;DHT22;3740;50.700;7.184;2023-06-26T10:04:37;23.20;99.90
7399;DHT22;3740;50.700;7.184;2023-06-26T10:07:06;23.50;99.90
7399;DHT22;3740;50.700;7.184;2023-06-26T10:09:32;23.50;99.90
7399;DHT22;3740;50.700;7.184;2023-06-26T10:12:03;23.50;99.90
7399;DHT22;3740;50.700;7.184;2023-06-26T10:14:35;23.30;99.90
7399;DHT22;3740;50.700;7.184;2023-06-26T10:17:07;23.40;99.90
7399;DHT22;3740;50.700;7.184;2023-06-26T10:19:35;23.40;99.90
7399;DHT22;3740;50.700;7.184;2023-06-26T10:22:03;23.40;99.90
7399;DHT22;3740;50.700;7.184;2023-06-26T10:24:32;23.50;99.90
7399;DHT22;3740;50.700;7.184;2023-06-26T10:27:06;23.60;99.90
7399;DHT22;3740;50.700;7.184;2023-06-26T10:29:34;23.60;99.90
7399;DHT22;3740;50.700;7.184;2023-06-26T10:32:02;23.70;99.90
7399;DHT22;3740;50.700;7.184;2023-06-26T10:34:29;23.70;99.90
7399;DHT22;3740;50.700;7.184;2023-06-26T10:37:02;23.70;99.90
7399;DHT22;3740;50.700;7.184;2023-06-26T10:39:46;23.90;99.90
7399;DHT22;3740;50.700;7.184;2023-06-26T10:42:13;23.80;99.90
7399;DHT22;3740;50.700;7.184;2023-06-26T10:44:46;24.00;99.90
7399;DHT22;3740;50.700;7.184;2023-06-26T10:47:32;24.10;99.90
7399;DHT22;3740;50.700;7.184;2023-06-26T10:50:23;24.10;99.90
7399;DHT22;3740;50.700;7.184;2023-06-26T10:53:11;24.00;99.90
7399;DHT22;3740;50.700;7.184;2023-06-26T10:55:39;24.30;99.90
7399;DHT22;3740;50.700;7.184;2023-06-26T10:58:26;24.30;99.90
7399;DHT22;3740;50.700;7.184;2023-06-26T11:00:52;24.10;99.90
7399;DHT22;3740;50.700;7.184;2023-06-26T11:04:35;24.20;99.90
7399;DHT22;3740;50.700;7.184;2023-06-26T11:06:28;24.40;99.90
7399;DHT22;3740;50.700;7.184;2023-06-26T11:09:01;25.30;99.90
7399;DHT22;3740;50.700;7.184;2023-06-26T11:14:25;27.20;98.10
7399;DHT22;3740;50.700;7.184;2023-06-26T11:16:51;27.90;95.90
7399;DHT22;3740;50.700;7.184;2023-06-26T11:19:18;29.10;92.10
7399;DHT22;3740;50.700;7.184;2023-06-26T11:21:44;29.70;84.00
7399;DHT22;3740;50.700;7.184;2023-06-26T11:24:11;29.90;87.00
7399;DHT22;3740;50.700;7.184;2023-06-26T11:26:41;30.00;85.90
7399;DHT22;3740;50.700;7.184;2023-06-26T11:29:08;31.20;79.50
7399;DHT22;3740;50.700;7.184;2023-06-26T11:31:35;30.20;77.40
7399;DHT22;3740;50.700;7.184;2023-06-26T11:34:04;29.70;80.70
7399;DHT22;3740;50.700;7.184;2023-06-26T11:36:30;29.70;82.30
7399;DHT22;3740;50.700;7.184;2023-06-26T11:38:57;29.10;85.40
7399;DHT22;3740;50.700;7.184;2023-06-26T11:41:26;29.50;85.80
7399;DHT22;3740;50.700;7.184;2023-06-26T11:43:52;29.50;87.60
7399;DHT22;3740;50.700;7.184;2023-06-26T11:46:19;28.80;83.30
7399;DHT22;3740;50.700;7.184;2023-06-26T11:48:45;28.20;86.10
7399;DHT22;3740;50.700;7.184;2023-06-26T11:51:15;28.00;83.90
7399;DHT22;3740;50.700;7.184;2023-06-26T11:53:42;27.60;85.90
7399;DHT22;3740;50.700;7.184;2023-06-26T11:56:12;27.90;87.30
7399;DHT22;3740;50.700;7.184;2023-06-26T11:59:01;28.40;89.00
7399;DHT22;3740;50.700;7.184;2023-06-26T12:01:33;28.70;84.30
7399;DHT22;3740;50.700;7.184;2023-06-26T12:04:00;29.70;81.30
7399;DHT22;3740;50.700;7.184;2023-06-26T12:06:27;30.00;76.70
7399;DHT22;3740;50.700;7.184;2023-06-26T12:08:54;29.60;77.60
7399;DHT22;3740;50.700;7.184;2023-06-26T12:11:20;29.50;78.90
7399;DHT22;3740;50.700;7.184;2023-06-26T12:13:48;30.40;78.50
7399;DHT22;3740;50.700;7.184;2023-06-26T12:16:14;30.20;75.30
7399;DHT22;3740;50.700;7.184;2023-06-26T12:18:40;29.90;75.70
7399;DHT22;3740;50.700;7.184;2023-06-26T12:21:06;31.00;74.20
7399;DHT22;3740;50.700;7.184;2023-06-26T12:23:39;30.40;72.40
7399;DHT22;3740;50.700;7.184;2023-06-26T12:26:20;30.40;72.70
7399;DHT22;3740;50.700;7.184;2023-06-26T12:28:47;30.30;72.70
7399;DHT22;3740;50.700;7.184;2023-06-26T12:31:14;29.30;75.10
7399;DHT22;3740;50.700;7.184;2023-06-26T12:33:39;29.00;78.80
7399;DHT22;3740;50.700;7.184;2023-06-26T12:36:09;29.60;76.70
7399;DHT22;3740;50.700;7.184;2023-06-26T12:38:35;30.10;72.10
7399;DHT22;3740;50.700;7.184;2023-06-26T12:41:01;30.90;70.50
7399;DHT22;3740;50.700;7.184;2023-06-26T12:43:26;31.60;67.00
7399;DHT22;3740;50.700;7.184;2023-06-26T12:45:55;31.10;65.80
7399;DHT22;3740;50.700;7.184;2023-06-26T12:48:22;31.40;64.30
7399;DHT22;3740;50.700;7.184;2023-06-26T12:50:47;30.60;60.80
7399;DHT22;3740;50.700;7.184;2023-06-26T12:53:15;30.30;61.00
7399;DHT22;3740;50.700;7.184;2023-06-26T12:55:41;30.50;63.60
7399;DHT22;3740;50.700;7.184;2023-06-26T12:58:06;29.70;65.10
7399;DHT22;3740;50.700;7.184;2023-06-26T13:00:32;29.50;67.50
7399;DHT22;3740;50.700;7.184;2023-06-26T13:02:59;29.10;69.40
7399;DHT22;3740;50.700;7.184;2023-06-26T13:05:24;28.80;70.60
7399;DHT22;3740;50.700;7.184;2023-06-26T13:07:50;28.70;67.60
7399;DHT22;3740;50.700;7.184;2023-06-26T13:10:15;27.70;67.90
7399;DHT22;3740;50.700;7.184;2023-06-26T13:12:42;27.50;68.00
7399;DHT22;3740;50.700;7.184;2023-06-26T13:15:08;27.10;71.10
7399;DHT22;3740;50.700;7.184;2023-06-26T13:17:34;27.90;70.40
7399;DHT22;3740;50.700;7.184;2023-06-26T13:19:59;28.80;66.10
7399;DHT22;3740;50.700;7.184;2023-06-26T13:22:25;28.50;69.10
7399;DHT22;3740;50.700;7.184;2023-06-26T13:24:50;28.30;71.80
7399;DHT22;3740;50.700;7.184;2023-06-26T13:27:16;28.20;72.80
7399;DHT22;3740;50.700;7.184;2023-06-26T13:29:42;28.00;74.90
7399;DHT22;3740;50.700;7.184;2023-06-26T13:32:08;27.70;73.50
7399;DHT22;3740;50.700;7.184;2023-06-26T13:34:33;27.20;73.70
7399;DHT22;3740;50.700;7.184;2023-06-26T13:36:59;26.80;75.90
7399;DHT22;3740;50.700;7.184;2023-06-26T13:39:27;26.60;79.00
7399;DHT22;3740;50.700;7.184;2023-06-26T13:41:53;26.50;78.80
7399;DHT22;3740;50.700;7.184;2023-06-26T13:44:18;26.70;79.50
7399;DHT22;3740;50.700;7.184;2023-06-26T13:46:44;27.10;72.40
7399;DHT22;3740;50.700;7.184;2023-06-26T13:49:09;27.80;70.80
7399;DHT22;3740;50.700;7.184;2023-06-26T13:51:35;28.20;74.10
7399;DHT22;3740;50.700;7.184;2023-06-26T13:54:00;27.90;74.80
7399;DHT22;3740;50.700;7.184;2023-06-26T13:56:26;27.10;75.00
7399;DHT22;3740;50.700;7.184;2023-06-26T13:58:53;26.60;80.40
7399;DHT22;3740;50.700;7.184;2023-06-26T14:01:18;26.30;81.70
7399;DHT22;3740;50.700;7.184;2023-06-26T14:03:45;26.40;80.20
7399;DHT22;3740;50.700;7.184;2023-06-26T14:06:10;26.60;79.70
7399;DHT22;3740;50.700;7.184;2023-06-26T14:08:36;26.60;81.20
7399;DHT22;3740;50.700;7.184;2023-06-26T14:11:01;27.00;76.10
7399;DHT22;3740;50.700;7.184;2023-06-26T14:13:27;26.90;72.90
7399;DHT22;3740;50.700;7.184;2023-06-26T14:15:53;27.10;72.60
7399;DHT22;3740;50.700;7.184;2023-06-26T14:18:18;26.40;78.00
7399;DHT22;3740;50.700;7.184;2023-06-26T14:20:44;26.10;78.40
7399;DHT22;3740;50.700;7.184;2023-06-26T14:23:10;25.80;81.50
7399;DHT22;3740;50.700;7.184;2023-06-26T14:25:35;25.50;83.70
7399;DHT22;3740;50.700;7.184;2023-06-26T14:28:01;25.40;87.30
7399;DHT22;3740;50.700;7.184;2023-06-26T14:30:27;25.70;85.80
7399;DHT22;3740;50.700;7.184;2023-06-26T14:32:52;25.50;85.40
7399;DHT22;3740;50.700;7.184;2023-06-26T14:35:18;25.40;87.70
7399;DHT22;3740;50.700;7.184;2023-06-26T14:37:44;25.40;86.50
7399;DHT22;3740;50.700;7.184;2023-06-26T14:40:10;25.70;87.60
7399;DHT22;3740;50.700;7.184;2023-06-26T14:42:36;25.70;85.50
7399;DHT22;3740;50.700;7.184;2023-06-26T14:45:02;25.40;85.80
7399;DHT22;3740;50.700;7.184;2023-06-26T14:47:28;25.50;86.10
7399;DHT22;3740;50.700;7.184;2023-06-26T14:49:54;25.20;85.10
7399;DHT22;3740;50.700;7.184;2023-06-26T14:52:19;25.30;85.90
7399;DHT22;3740;50.700;7.184;2023-06-26T14:54:45;25.00;84.80
7399;DHT22;3740;50.700;7.184;2023-06-26T14:57:10;24.60;85.90
7399;DHT22;3740;50.700;7.184;2023-06-26T14:59:36;24.60;88.20
7399;DHT22;3740;50.700;7.184;2023-06-26T15:02:01;24.70;87.10
7399;DHT22;3740;50.700;7.184;2023-06-26T15:04:27;24.60;88.90
7399;DHT22;3740;50.700;7.184;2023-06-26T15:06:53;24.40;91.10
7399;DHT22;3740;50.700;7.184;2023-06-26T15:09:18;24.30;88.40
7399;DHT22;3740;50.700;7.184;2023-06-26T15:11:44;24.50;87.00
7399;DHT22;3740;50.700;7.184;2023-06-26T15:14:09;24.60;88.00
7399;DHT22;3740;50.700;7.184;2023-06-26T15:16:35;24.70;87.10
7399;DHT22;3740;50.700;7.184;2023-06-26T15:19:01;24.60;83.00
7399;DHT22;3740;50.700;7.184;2023-06-26T15:21:26;24.60;83.30
7399;DHT22;3740;50.700;7.184;2023-06-26T15:23:52;24.70;83.50
7399;DHT22;3740;50.700;7.184;2023-06-26T15:26:17;24.50;80.00
7399;DHT22;3740;50.700;7.184;2023-06-26T15:28:43;24.50;81.80
7399;DHT22;3740;50.700;7.184;2023-06-26T15:31:09;24.50;78.60
7399;DHT22;3740;50.700;7.184;2023-06-26T15:33:34;24.80;79.50
7399;DHT22;3740;50.700;7.184;2023-06-26T15:36:00;24.80;80.40
7399;DHT22;3740;50.700;7.184;2023-06-26T15:38:29;24.70;78.70
7399;DHT22;3740;50.700;7.184;2023-06-26T15:40:54;24.60;81.50
7399;DHT22;3740;50.700;7.184;2023-06-26T15:43:20;24.40;83.10
7399;DHT22;3740;50.700;7.184;2023-06-26T15:45:45;24.20;86.60
7399;DHT22;3740;50.700;7.184;2023-06-26T15:48:11;24.00;87.40
7399;DHT22;3740;50.700;7.184;2023-06-26T15:50:36;23.90;88.60
7399;DHT22;3740;50.700;7.184;2023-06-26T15:53:02;24.10;89.50
7399;DHT22;3740;50.700;7.184;2023-06-26T15:55:29;24.40;89.70
7399;DHT22;3740;50.700;7.184;2023-06-26T15:57:54;24.50;88.30
7399;DHT22;3740;50.700;7.184;2023-06-26T16:00:20;24.30;82.90
7399;DHT22;3740;50.700;7.184;2023-06-26T16:02:46;24.00;84.00
7399;DHT22;3740;50.700;7.184;2023-06-26T16:05:11;24.00;86.10
7399;DHT22;3740;50.700;7.184;2023-06-26T16:07:37;24.10;87.00
7399;DHT22;3740;50.700;7.184;2023-06-26T16:10:03;24.20;88.30